sensor_id;sensor_type;location;lat;lon;timestamp;P1;durP1;ratioP1;P2;durP2;ratioP2
73575;SDS011;61859;49.204;8.140;2023-02-26T00:01:38;1.30;;;1.07;;
73575;SDS011;61859;49.204;8.140;2023-02-26T00:04:04;4.33;;;1.33;;
73575;SDS011;61859;49.204;8.140;2023-02-26T00:06:32;1.67;;;1.20;;
73575;SDS011;61859;49.204;8.140;2023-02-26T00:08:59;6.30;;;1.30;;
73575;SDS011;61859;49.204;8.140;2023-02-26T00:11:25;1.13;;;1.03;;
73575;SDS011;61859;49.204;8.140;2023-02-26T00:13:51;2.30;;;1.07;;
73575;SDS011;61859;49.204;8.140;2023-02-26T00:18:56;1.10;;;1.00;;
73575;SDS011;61859;49.204;8.140;2023-02-26T00:21:25;2.73;;;1.10;;
73575;SDS011;61859;49.204;8.140;2023-02-26T00:23:52;3.60;;;1.23;;
73575;SDS011;61859;49.204;8.140;2023-02-26T00:26:18;2.23;;;1.20;;
73575;SDS011;61859;49.204;8.140;2023-02-26T00:28:45;1.37;;;1.10;;
73575;SDS011;61859;49.204;8.140;2023-02-26T00:31:10;2.70;;;1.10;;
73575;SDS011;61859;49.204;8.140;2023-02-26T00:33:39;1.17;;;1.00;;
73575;SDS011;61859;49.204;8.140;2023-02-26T00:39:05;4.13;;;1.57;;
73575;SDS011;61859;49.204;8.140;2023-02-26T00:41:45;2.00;;;1.23;;
73575;SDS011;61859;49.204;8.140;2023-02-26T00:44:11;0.90;;;0.90;;
73575;SDS011;61859;49.204;8.140;2023-02-26T00:46:44;1.03;;;0.83;;
73575;SDS011;61859;49.204;8.140;2023-02-26T00:49:32;2.07;;;1.07;;
73575;SDS011;61859;49.204;8.140;2023-02-26T00:55:24;5.87;;;1.20;;
73575;SDS011;61859;49.204;8.140;2023-02-26T00:57:50;1.40;;;1.20;;
73575;SDS011;61859;49.204;8.140;2023-02-26T01:00:16;3.17;;;1.50;;
73575;SDS011;61859;49.204;8.140;2023-02-26T01:02:43;1.40;;;1.30;;
73575;SDS011;61859;49.204;8.140;2023-02-26T01:05:09;2.20;;;1.10;;
73575;SDS011;61859;49.204;8.140;2023-02-26T01:07:38;4.80;;;1.10;;
73575;SDS011;61859;49.204;8.140;2023-02-26T01:10:08;1.20;;;0.90;;
73575;SDS011;61859;49.204;8.140;2023-02-26T01:12:35;1.30;;;1.20;;
73575;SDS011;61859;49.204;8.140;2023-02-26T01:15:01;1.73;;;1.27;;
73575;SDS011;61859;49.204;8.140;2023-02-26T01:17:35;1.67;;;0.97;;
73575;SDS011;61859;49.204;8.140;2023-02-26T01:22:39;2.13;;;1.30;;
73575;SDS011;61859;49.204;8.140;2023-02-26T01:25:12;2.00;;;1.23;;
73575;SDS011;61859;49.204;8.140;2023-02-26T01:27:42;4.47;;;1.70;;
73575;SDS011;61859;49.204;8.140;2023-02-26T01:30:07;3.17;;;1.20;;
73575;SDS011;61859;49.204;8.140;2023-02-26T01:32:37;2.20;;;1.37;;
73575;SDS011;61859;49.204;8.140;2023-02-26T01:35:15;0.93;;;0.93;;
73575;SDS011;61859;49.204;8.140;2023-02-26T01:37:55;1.87;;;1.13;;
73575;SDS011;61859;49.204;8.140;2023-02-26T01:44:02;2.03;;;1.17;;
73575;SDS011;61859;49.204;8.140;2023-02-26T01:46:13;1.40;;;1.07;;
73575;SDS011;61859;49.204;8.140;2023-02-26T01:48:50;4.20;;;1.30;;
73575;SDS011;61859;49.204;8.140;2023-02-26T01:51:18;0.70;;;0.70;;
73575;SDS011;61859;49.204;8.140;2023-02-26T01:54:04;7.30;;;1.33;;
73575;SDS011;61859;49.204;8.140;2023-02-26T01:56:29;1.53;;;0.93;;
73575;SDS011;61859;49.204;8.140;2023-02-26T01:58:55;1.37;;;0.97;;
73575;SDS011;61859;49.204;8.140;2023-02-26T02:01:20;5.23;;;1.20;;
73575;SDS011;61859;49.204;8.140;2023-02-26T02:03:46;1.80;;;1.23;;
73575;SDS011;61859;49.204;8.140;2023-02-26T02:06:21;1.00;;;1.00;;
73575;SDS011;61859;49.204;8.140;2023-02-26T02:08:50;2.77;;;1.33;;
73575;SDS011;61859;49.204;8.140;2023-02-26T02:11:15;2.23;;;1.20;;
73575;SDS011;61859;49.204;8.140;2023-02-26T02:18:51;2.23;;;1.17;;
73575;SDS011;61859;49.204;8.140;2023-02-26T02:24:20;1.70;;;1.17;;
73575;SDS011;61859;49.204;8.140;2023-02-26T02:27:05;3.37;;;1.37;;
73575;SDS011;61859;49.204;8.140;2023-02-26T02:29:43;2.67;;;1.33;;
73575;SDS011;61859;49.204;8.140;2023-02-26T02:32:29;2.23;;;1.20;;
73575;SDS011;61859;49.204;8.140;2023-02-26T02:35:07;1.07;;;0.97;;
73575;SDS011;61859;49.204;8.140;2023-02-26T02:37:52;2.40;;;1.10;;
73575;SDS011;61859;49.204;8.140;2023-02-26T02:40:23;3.47;;;1.03;;
73575;SDS011;61859;49.204;8.140;2023-02-26T02:43:01;3.37;;;1.20;;
73575;SDS011;61859;49.204;8.140;2023-02-26T02:45:37;4.10;;;1.47;;
73575;SDS011;61859;49.204;8.140;2023-02-26T02:48:16;2.23;;;1.33;;
73575;SDS011;61859;49.204;8.140;2023-02-26T02:50:53;2.23;;;1.53;;
73575;SDS011;61859;49.204;8.140;2023-02-26T02:53:28;2.90;;;1.40;;
73575;SDS011;61859;49.204;8.140;2023-02-26T02:55:59;1.27;;;1.10;;
73575;SDS011;61859;49.204;8.140;2023-02-26T02:58:30;4.13;;;1.10;;
73575;SDS011;61859;49.204;8.140;2023-02-26T03:01:05;4.27;;;1.33;;
73575;SDS011;61859;49.204;8.140;2023-02-26T03:03:34;1.73;;;1.37;;
73575;SDS011;61859;49.204;8.140;2023-02-26T03:06:07;1.73;;;1.20;;
73575;SDS011;61859;49.204;8.140;2023-02-26T03:08:36;2.40;;;1.63;;
73575;SDS011;61859;49.204;8.140;2023-02-26T03:11:05;2.83;;;1.30;;
73575;SDS011;61859;49.204;8.140;2023-02-26T03:13:31;1.37;;;1.20;;
73575;SDS011;61859;49.204;8.140;2023-02-26T03:16:04;4.73;;;1.57;;
73575;SDS011;61859;49.204;8.140;2023-02-26T03:18:49;2.43;;;1.30;;
73575;SDS011;61859;49.204;8.140;2023-02-26T03:21:19;1.83;;;1.33;;
73575;SDS011;61859;49.204;8.140;2023-02-26T03:23:49;3.80;;;1.20;;
73575;SDS011;61859;49.204;8.140;2023-02-26T03:29:50;2.50;;;1.50;;
73575;SDS011;61859;49.204;8.140;2023-02-26T03:32:24;5.03;;;1.50;;
73575;SDS011;61859;49.204;8.140;2023-02-26T03:34:52;2.53;;;1.33;;
73575;SDS011;61859;49.204;8.140;2023-02-26T03:37:38;1.70;;;1.10;;
73575;SDS011;61859;49.204;8.140;2023-02-26T03:40:18;3.00;;;1.07;;
73575;SDS011;61859;49.204;8.140;2023-02-26T03:42:59;1.60;;;0.93;;
73575;SDS011;61859;49.204;8.140;2023-02-26T03:45:32;1.30;;;0.97;;
73575;SDS011;61859;49.204;8.140;2023-02-26T03:47:59;2.07;;;1.13;;
73575;SDS011;61859;49.204;8.140;2023-02-26T03:50:45;3.13;;;1.40;;
73575;SDS011;61859;49.204;8.140;2023-02-26T03:53:15;5.53;;;1.30;;
73575;SDS011;61859;49.204;8.140;2023-02-26T03:58:22;5.10;;;1.13;;
73575;SDS011;61859;49.204;8.140;2023-02-26T04:00:49;3.90;;;0.83;;
73575;SDS011;61859;49.204;8.140;2023-02-26T04:03:26;5.20;;;1.63;;
73575;SDS011;61859;49.204;8.140;2023-02-26T04:06:07;2.37;;;1.00;;
73575;SDS011;61859;49.204;8.140;2023-02-26T04:08:33;5.30;;;1.40;;
73575;SDS011;61859;49.204;8.140;2023-02-26T04:11:08;3.33;;;1.33;;
73575;SDS011;61859;49.204;8.140;2023-02-26T04:13:37;2.30;;;1.20;;
73575;SDS011;61859;49.204;8.140;2023-02-26T04:16:02;3.57;;;1.50;;
73575;SDS011;61859;49.204;8.140;2023-02-26T04:18:29;3.00;;;1.03;;
73575;SDS011;61859;49.204;8.140;2023-02-26T04:20:54;2.33;;;0.93;;
73575;SDS011;61859;49.204;8.140;2023-02-26T04:23:20;5.57;;;1.40;;
73575;SDS011;61859;49.204;8.140;2023-02-26T04:25:45;2.67;;;1.27;;
73575;SDS011;61859;49.204;8.140;2023-02-26T04:28:11;5.80;;;1.00;;
73575;SDS011;61859;49.204;8.140;2023-02-26T04:30:37;7.63;;;1.43;;
73575;SDS011;61859;49.204;8.140;2023-02-26T04:33:02;3.30;;;1.20;;
73575;SDS011;61859;49.204;8.140;2023-02-26T04:35:28;1.73;;;1.30;;
73575;SDS011;61859;49.204;8.140;2023-02-26T04:37:54;2.07;;;1.10;;
73575;SDS011;61859;49.204;8.140;2023-02-26T04:40:19;2.53;;;1.03;;
73575;SDS011;61859;49.204;8.140;2023-02-26T04:42:45;4.07;;;1.10;;
73575;SDS011;61859;49.204;8.140;2023-02-26T04:45:10;5.70;;;1.13;;
73575;SDS011;61859;49.204;8.140;2023-02-26T04:47:36;2.33;;;1.10;;
73575;SDS011;61859;49.204;8.140;2023-02-26T04:50:02;1.37;;;0.83;;
73575;SDS011;61859;49.204;8.140;2023-02-26T04:52:28;6.07;;;1.47;;
73575;SDS011;61859;49.204;8.140;2023-02-26T04:54:53;2.63;;;1.20;;
73575;SDS011;61859;49.204;8.140;2023-02-26T04:57:19;1.53;;;1.43;;
73575;SDS011;61859;49.204;8.140;2023-02-26T04:59:44;2.57;;;1.10;;
73575;SDS011;61859;49.204;8.140;2023-02-26T05:02:10;1.03;;;0.93;;
73575;SDS011;61859;49.204;8.140;2023-02-26T05:04:35;1.43;;;1.20;;
73575;SDS011;61859;49.204;8.140;2023-02-26T05:07:01;2.53;;;1.40;;
73575;SDS011;61859;49.204;8.140;2023-02-26T05:09:26;3.43;;;1.40;;
73575;SDS011;61859;49.204;8.140;2023-02-26T05:11:52;3.37;;;1.00;;
73575;SDS011;61859;49.204;8.140;2023-02-26T05:14:18;1.20;;;1.10;;
73575;SDS011;61859;49.204;8.140;2023-02-26T05:16:43;2.37;;;1.37;;
73575;SDS011;61859;49.204;8.140;2023-02-26T05:19:09;2.93;;;1.37;;
73575;SDS011;61859;49.204;8.140;2023-02-26T05:21:34;3.43;;;1.30;;
73575;SDS011;61859;49.204;8.140;2023-02-26T05:24:00;1.37;;;1.27;;
73575;SDS011;61859;49.204;8.140;2023-02-26T05:26:25;1.50;;;1.30;;
73575;SDS011;61859;49.204;8.140;2023-02-26T05:28:51;1.37;;;1.27;;
73575;SDS011;61859;49.204;8.140;2023-02-26T05:31:17;3.23;;;1.40;;
73575;SDS011;61859;49.204;8.140;2023-02-26T05:33:42;4.80;;;1.70;;
73575;SDS011;61859;49.204;8.140;2023-02-26T05:36:09;2.57;;;1.47;;
73575;SDS011;61859;49.204;8.140;2023-02-26T05:38:35;3.93;;;1.47;;
73575;SDS011;61859;49.204;8.140;2023-02-26T05:41:00;0.93;;;0.93;;
73575;SDS011;61859;49.204;8.140;2023-02-26T05:43:26;3.00;;;1.47;;
73575;SDS011;61859;49.204;8.140;2023-02-26T05:45:53;4.33;;;1.87;;
73575;SDS011;61859;49.204;8.140;2023-02-26T05:48:19;7.37;;;1.80;;
73575;SDS011;61859;49.204;8.140;2023-02-26T05:50:45;1.83;;;1.53;;
73575;SDS011;61859;49.204;8.140;2023-02-26T05:53:12;7.30;;;2.07;;
73575;SDS011;61859;49.204;8.140;2023-02-26T05:55:38;3.33;;;1.63;;
73575;SDS011;61859;49.204;8.140;2023-02-26T05:58:03;5.03;;;1.40;;
73575;SDS011;61859;49.204;8.140;2023-02-26T06:00:29;2.87;;;2.00;;
73575;SDS011;61859;49.204;8.140;2023-02-26T06:02:54;2.57;;;1.60;;
73575;SDS011;61859;49.204;8.140;2023-02-26T06:05:20;3.67;;;1.80;;
73575;SDS011;61859;49.204;8.140;2023-02-26T06:07:46;2.17;;;1.43;;
73575;SDS011;61859;49.204;8.140;2023-02-26T06:10:11;3.57;;;1.63;;
73575;SDS011;61859;49.204;8.140;2023-02-26T06:12:37;4.90;;;1.97;;
73575;SDS011;61859;49.204;8.140;2023-02-26T06:15:03;3.07;;;1.53;;
73575;SDS011;61859;49.204;8.140;2023-02-26T06:17:30;2.27;;;1.63;;
73575;SDS011;61859;49.204;8.140;2023-02-26T06:19:55;2.60;;;1.57;;
73575;SDS011;61859;49.204;8.140;2023-02-26T06:22:21;2.43;;;1.50;;
73575;SDS011;61859;49.204;8.140;2023-02-26T06:24:46;2.23;;;1.40;;
73575;SDS011;61859;49.204;8.140;2023-02-26T06:27:12;3.93;;;2.07;;
73575;SDS011;61859;49.204;8.140;2023-02-26T06:29:37;1.90;;;1.67;;
73575;SDS011;61859;49.204;8.140;2023-02-26T06:32:04;3.77;;;1.93;;
73575;SDS011;61859;49.204;8.140;2023-02-26T06:34:30;1.90;;;1.47;;
73575;SDS011;61859;49.204;8.140;2023-02-26T06:36:55;2.17;;;1.50;;
73575;SDS011;61859;49.204;8.140;2023-02-26T06:39:21;2.67;;;1.87;;
73575;SDS011;61859;49.204;8.140;2023-02-26T06:41:46;2.50;;;2.00;;
73575;SDS011;61859;49.204;8.140;2023-02-26T06:44:12;2.10;;;1.70;;
73575;SDS011;61859;49.204;8.140;2023-02-26T06:46:37;2.50;;;1.60;;
73575;SDS011;61859;49.204;8.140;2023-02-26T06:49:03;4.07;;;1.47;;
73575;SDS011;61859;49.204;8.140;2023-02-26T06:51:29;3.70;;;1.87;;
73575;SDS011;61859;49.204;8.140;2023-02-26T06:53:55;1.57;;;1.47;;
73575;SDS011;61859;49.204;8.140;2023-02-26T06:56:21;4.03;;;1.70;;
73575;SDS011;61859;49.204;8.140;2023-02-26T06:58:47;3.50;;;1.80;;
73575;SDS011;61859;49.204;8.140;2023-02-26T07:01:13;3.70;;;1.90;;
73575;SDS011;61859;49.204;8.140;2023-02-26T07:03:39;3.42;;;2.00;;
73575;SDS011;61859;49.204;8.140;2023-02-26T07:06:05;3.47;;;2.27;;
73575;SDS011;61859;49.204;8.140;2023-02-26T07:08:32;2.40;;;2.07;;
73575;SDS011;61859;49.204;8.140;2023-02-26T07:10:58;4.03;;;2.30;;
73575;SDS011;61859;49.204;8.140;2023-02-26T07:13:24;4.13;;;2.30;;
73575;SDS011;61859;49.204;8.140;2023-02-26T07:15:49;4.97;;;2.17;;
73575;SDS011;61859;49.204;8.140;2023-02-26T07:18:15;5.97;;;2.23;;
73575;SDS011;61859;49.204;8.140;2023-02-26T07:20:41;4.17;;;2.40;;
73575;SDS011;61859;49.204;8.140;2023-02-26T07:23:07;4.03;;;2.00;;
73575;SDS011;61859;49.204;8.140;2023-02-26T07:25:33;5.50;;;2.70;;
73575;SDS011;61859;49.204;8.140;2023-02-26T07:27:58;2.97;;;2.30;;
73575;SDS011;61859;49.204;8.140;2023-02-26T07:30:24;7.33;;;2.47;;
73575;SDS011;61859;49.204;8.140;2023-02-26T07:32:50;3.30;;;1.90;;
73575;SDS011;61859;49.204;8.140;2023-02-26T07:35:16;4.30;;;2.23;;
73575;SDS011;61859;49.204;8.140;2023-02-26T07:37:44;2.37;;;1.70;;
73575;SDS011;61859;49.204;8.140;2023-02-26T07:40:10;2.83;;;2.07;;
73575;SDS011;61859;49.204;8.140;2023-02-26T07:42:36;2.73;;;1.80;;
73575;SDS011;61859;49.204;8.140;2023-02-26T07:45:02;3.80;;;2.03;;
73575;SDS011;61859;49.204;8.140;2023-02-26T07:47:28;2.73;;;2.13;;
73575;SDS011;61859;49.204;8.140;2023-02-26T07:49:54;3.57;;;1.90;;
73575;SDS011;61859;49.204;8.140;2023-02-26T07:52:20;2.47;;;1.97;;
73575;SDS011;61859;49.204;8.140;2023-02-26T07:54:46;5.23;;;1.80;;
73575;SDS011;61859;49.204;8.140;2023-02-26T07:57:12;2.27;;;1.63;;
73575;SDS011;61859;49.204;8.140;2023-02-26T07:59:37;4.43;;;2.13;;
73575;SDS011;61859;49.204;8.140;2023-02-26T08:02:04;3.63;;;1.83;;
73575;SDS011;61859;49.204;8.140;2023-02-26T08:04:30;1.63;;;1.47;;
73575;SDS011;61859;49.204;8.140;2023-02-26T08:06:57;2.53;;;1.47;;
73575;SDS011;61859;49.204;8.140;2023-02-26T08:09:24;2.20;;;1.70;;
73575;SDS011;61859;49.204;8.140;2023-02-26T08:11:50;2.57;;;1.57;;
73575;SDS011;61859;49.204;8.140;2023-02-26T08:14:16;6.90;;;2.13;;
73575;SDS011;61859;49.204;8.140;2023-02-26T08:16:41;2.77;;;2.00;;
73575;SDS011;61859;49.204;8.140;2023-02-26T08:19:07;2.33;;;1.53;;
73575;SDS011;61859;49.204;8.140;2023-02-26T08:21:33;3.27;;;1.93;;
73575;SDS011;61859;49.204;8.140;2023-02-26T08:23:59;2.50;;;1.50;;
73575;SDS011;61859;49.204;8.140;2023-02-26T08:26:24;3.03;;;1.80;;
73575;SDS011;61859;49.204;8.140;2023-02-26T08:28:50;1.90;;;1.63;;
73575;SDS011;61859;49.204;8.140;2023-02-26T08:31:16;3.67;;;1.90;;
73575;SDS011;61859;49.204;8.140;2023-02-26T08:33:42;2.13;;;1.90;;
73575;SDS011;61859;49.204;8.140;2023-02-26T08:36:07;4.33;;;1.70;;
73575;SDS011;61859;49.204;8.140;2023-02-26T08:38:33;4.20;;;1.80;;
73575;SDS011;61859;49.204;8.140;2023-02-26T08:40:59;2.77;;;1.97;;
73575;SDS011;61859;49.204;8.140;2023-02-26T08:43:24;4.80;;;2.17;;
73575;SDS011;61859;49.204;8.140;2023-02-26T08:45:51;3.60;;;1.90;;
73575;SDS011;61859;49.204;8.140;2023-02-26T08:48:18;2.30;;;1.77;;
73575;SDS011;61859;49.204;8.140;2023-02-26T08:50:44;2.90;;;1.70;;
73575;SDS011;61859;49.204;8.140;2023-02-26T08:53:09;1.53;;;1.30;;
73575;SDS011;61859;49.204;8.140;2023-02-26T08:55:35;5.80;;;1.70;;
73575;SDS011;61859;49.204;8.140;2023-02-26T08:58:00;6.10;;;1.80;;
73575;SDS011;61859;49.204;8.140;2023-02-26T09:00:26;5.97;;;1.80;;
73575;SDS011;61859;49.204;8.140;2023-02-26T09:02:52;2.23;;;1.80;;
73575;SDS011;61859;49.204;8.140;2023-02-26T09:05:17;2.30;;;1.60;;
73575;SDS011;61859;49.204;8.140;2023-02-26T09:07:43;2.43;;;1.60;;
73575;SDS011;61859;49.204;8.140;2023-02-26T09:10:09;1.70;;;1.37;;
73575;SDS011;61859;49.204;8.140;2023-02-26T09:12:36;2.27;;;1.60;;
73575;SDS011;61859;49.204;8.140;2023-02-26T09:15:03;3.40;;;1.83;;
73575;SDS011;61859;49.204;8.140;2023-02-26T09:17:29;5.07;;;2.57;;
73575;SDS011;61859;49.204;8.140;2023-02-26T09:19:56;2.63;;;1.60;;
73575;SDS011;61859;49.204;8.140;2023-02-26T09:22:22;4.30;;;2.10;;
73575;SDS011;61859;49.204;8.140;2023-02-26T09:24:47;2.83;;;1.43;;
73575;SDS011;61859;49.204;8.140;2023-02-26T09:27:13;3.03;;;1.77;;
73575;SDS011;61859;49.204;8.140;2023-02-26T09:29:39;2.17;;;1.60;;
73575;SDS011;61859;49.204;8.140;2023-02-26T09:32:04;2.57;;;1.30;;
73575;SDS011;61859;49.204;8.140;2023-02-26T09:34:33;2.63;;;1.13;;
73575;SDS011;61859;49.204;8.140;2023-02-26T09:37:02;1.87;;;1.40;;
73575;SDS011;61859;49.204;8.140;2023-02-26T09:39:29;3.77;;;1.60;;
73575;SDS011;61859;49.204;8.140;2023-02-26T09:41:57;1.97;;;1.73;;
73575;SDS011;61859;49.204;8.140;2023-02-26T09:44:29;1.97;;;1.70;;
73575;SDS011;61859;49.204;8.140;2023-02-26T09:47:18;4.63;;;1.67;;
73575;SDS011;61859;49.204;8.140;2023-02-26T09:55:16;3.63;;;1.70;;
73575;SDS011;61859;49.204;8.140;2023-02-26T09:58:01;1.30;;;1.20;;
73575;SDS011;61859;49.204;8.140;2023-02-26T10:00:31;1.77;;;1.40;;
73575;SDS011;61859;49.204;8.140;2023-02-26T10:03:27;1.93;;;1.27;;
73575;SDS011;61859;49.204;8.140;2023-02-26T10:11:59;2.53;;;1.53;;
73575;SDS011;61859;49.204;8.140;2023-02-26T10:17:00;2.70;;;1.33;;
73575;SDS011;61859;49.204;8.140;2023-02-26T10:19:33;4.37;;;2.27;;
73575;SDS011;61859;49.204;8.140;2023-02-26T10:22:05;3.77;;;3.17;;
73575;SDS011;61859;49.204;8.140;2023-02-26T10:28:37;4.03;;;1.60;;
73575;SDS011;61859;49.204;8.140;2023-02-26T10:31:34;1.20;;;1.10;;
73575;SDS011;61859;49.204;8.140;2023-02-26T10:36:29;1.67;;;1.40;;
73575;SDS011;61859;49.204;8.140;2023-02-26T10:39:15;2.30;;;1.57;;
73575;SDS011;61859;49.204;8.140;2023-02-26T10:42:01;4.17;;;2.00;;
73575;SDS011;61859;49.204;8.140;2023-02-26T10:44:33;1.87;;;1.40;;
73575;SDS011;61859;49.204;8.140;2023-02-26T10:50:02;1.40;;;1.30;;
73575;SDS011;61859;49.204;8.140;2023-02-26T10:52:31;1.47;;;1.20;;
73575;SDS011;61859;49.204;8.140;2023-02-26T10:57:50;2.33;;;1.33;;
73575;SDS011;61859;49.204;8.140;2023-02-26T11:00:23;1.20;;;1.10;;
73575;SDS011;61859;49.204;8.140;2023-02-26T11:02:49;3.50;;;1.63;;
73575;SDS011;61859;49.204;8.140;2023-02-26T11:05:22;6.90;;;2.70;;
73575;SDS011;61859;49.204;8.140;2023-02-26T11:07:51;2.60;;;1.67;;
73575;SDS011;61859;49.204;8.140;2023-02-26T11:10:25;1.27;;;1.17;;
73575;SDS011;61859;49.204;8.140;2023-02-26T11:12:57;2.90;;;1.47;;
73575;SDS011;61859;49.204;8.140;2023-02-26T11:15:24;7.03;;;3.20;;
73575;SDS011;61859;49.204;8.140;2023-02-26T11:17:55;3.17;;;1.50;;
73575;SDS011;61859;49.204;8.140;2023-02-26T11:22:51;2.67;;;1.47;;
73575;SDS011;61859;49.204;8.140;2023-02-26T11:25:22;3.47;;;1.33;;
73575;SDS011;61859;49.204;8.140;2023-02-26T11:27:49;2.33;;;1.00;;
73575;SDS011;61859;49.204;8.140;2023-02-26T11:30:21;5.03;;;2.80;;
73575;SDS011;61859;49.204;8.140;2023-02-26T11:32:52;2.43;;;1.20;;
73575;SDS011;61859;49.204;8.140;2023-02-26T11:35:21;9.33;;;3.53;;
73575;SDS011;61859;49.204;8.140;2023-02-26T11:37:54;4.07;;;1.80;;
73575;SDS011;61859;49.204;8.140;2023-02-26T11:42:58;3.93;;;1.80;;
73575;SDS011;61859;49.204;8.140;2023-02-26T11:45:27;3.47;;;2.10;;
73575;SDS011;61859;49.204;8.140;2023-02-26T11:48:00;4.00;;;2.40;;
73575;SDS011;61859;49.204;8.140;2023-02-26T11:50:29;2.80;;;1.50;;
73575;SDS011;61859;49.204;8.140;2023-02-26T11:53:03;1.33;;;1.00;;
73575;SDS011;61859;49.204;8.140;2023-02-26T11:55:33;4.43;;;1.70;;
73575;SDS011;61859;49.204;8.140;2023-02-26T11:58:01;2.20;;;1.70;;
73575;SDS011;61859;49.204;8.140;2023-02-26T12:00:38;2.93;;;1.63;;
73575;SDS011;61859;49.204;8.140;2023-02-26T12:03:05;2.27;;;1.43;;
73575;SDS011;61859;49.204;8.140;2023-02-26T12:05:38;1.20;;;1.00;;
73575;SDS011;61859;49.204;8.140;2023-02-26T12:08:06;1.87;;;1.10;;
73575;SDS011;61859;49.204;8.140;2023-02-26T12:13:37;0.97;;;0.40;;
73575;SDS011;61859;49.204;8.140;2023-02-26T12:16:16;0.50;;;0.50;;
73575;SDS011;61859;49.204;8.140;2023-02-26T12:19:00;0.57;;;0.53;;
73575;SDS011;61859;49.204;8.140;2023-02-26T12:32:39;0.70;;;0.70;;
73575;SDS011;61859;49.204;8.140;2023-02-26T12:35:41;0.90;;;0.70;;
73575;SDS011;61859;49.204;8.140;2023-02-26T12:56:50;0.67;;;0.60;;
73575;SDS011;61859;49.204;8.140;2023-02-26T13:02:28;0.80;;;0.73;;
73575;SDS011;61859;49.204;8.140;2023-02-26T13:08:24;1.60;;;0.40;;
73575;SDS011;61859;49.204;8.140;2023-02-26T13:11:10;0.33;;;0.33;;
73575;SDS011;61859;49.204;8.140;2023-02-26T13:14:04;0.70;;;0.70;;
73575;SDS011;61859;49.204;8.140;2023-02-26T13:16:47;0.50;;;0.50;;
73575;SDS011;61859;49.204;8.140;2023-02-26T13:19:29;0.73;;;0.60;;
73575;SDS011;61859;49.204;8.140;2023-02-26T13:22:21;2.73;;;1.10;;
73575;SDS011;61859;49.204;8.140;2023-02-26T13:24:56;2.43;;;1.30;;
73575;SDS011;61859;49.204;8.140;2023-02-26T13:27:33;1.00;;;0.97;;
73575;SDS011;61859;49.204;8.140;2023-02-26T13:32:30;2.27;;;1.53;;
73575;SDS011;61859;49.204;8.140;2023-02-26T13:35:32;2.10;;;1.00;;
73575;SDS011;61859;49.204;8.140;2023-02-26T13:37:59;1.00;;;0.90;;
73575;SDS011;61859;49.204;8.140;2023-02-26T13:51:48;0.60;;;0.60;;
73575;SDS011;61859;49.204;8.140;2023-02-26T13:56:48;1.63;;;0.60;;
73575;SDS011;61859;49.204;8.140;2023-02-26T13:59:45;0.63;;;0.40;;
73575;SDS011;61859;49.204;8.140;2023-02-26T14:04:49;0.60;;;0.47;;
73575;SDS011;61859;49.204;8.140;2023-02-26T14:07:17;0.77;;;0.50;;
73575;SDS011;61859;49.204;8.140;2023-02-26T14:10:25;0.53;;;0.50;;
73575;SDS011;61859;49.204;8.140;2023-02-26T14:15:52;6.33;;;0.20;;
73575;SDS011;61859;49.204;8.140;2023-02-26T14:18:27;0.43;;;0.30;;
73575;SDS011;61859;49.204;8.140;2023-02-26T14:21:26;0.20;;;0.10;;
73575;SDS011;61859;49.204;8.140;2023-02-26T14:29:42;0.20;;;0.20;;
73575;SDS011;61859;49.204;8.140;2023-02-26T14:35:15;0.50;;;0.40;;
73575;SDS011;61859;49.204;8.140;2023-02-26T14:37:48;0.30;;;0.30;;
73575;SDS011;61859;49.204;8.140;2023-02-26T14:40:37;0.77;;;0.50;;
73575;SDS011;61859;49.204;8.140;2023-02-26T14:43:06;0.20;;;0.20;;
73575;SDS011;61859;49.204;8.140;2023-02-26T14:45:40;1.23;;;0.57;;
73575;SDS011;61859;49.204;8.140;2023-02-26T14:48:13;0.60;;;0.50;;
73575;SDS011;61859;49.204;8.140;2023-02-26T14:57:02;1.40;;;0.40;;
73575;SDS011;61859;49.204;8.140;2023-02-26T15:22:15;0.50;;;0.40;;
73575;SDS011;61859;49.204;8.140;2023-02-26T15:24:52;1.23;;;0.60;;
73575;SDS011;61859;49.204;8.140;2023-02-26T15:27:18;0.57;;;0.30;;
73575;SDS011;61859;49.204;8.140;2023-02-26T15:29:44;0.73;;;0.70;;
73575;SDS011;61859;49.204;8.140;2023-02-26T15:32:25;0.20;;;0.20;;
73575;SDS011;61859;49.204;8.140;2023-02-26T15:37:28;0.67;;;0.40;;
73575;SDS011;61859;49.204;8.140;2023-02-26T15:39:57;1.07;;;0.97;;
73575;SDS011;61859;49.204;8.140;2023-02-26T15:42:26;0.70;;;0.47;;
73575;SDS011;61859;49.204;8.140;2023-02-26T15:44:57;0.50;;;0.43;;
73575;SDS011;61859;49.204;8.140;2023-02-26T15:47:25;0.83;;;0.40;;
73575;SDS011;61859;49.204;8.140;2023-02-26T15:49:52;0.37;;;0.37;;
73575;SDS011;61859;49.204;8.140;2023-02-26T15:52:20;1.17;;;0.50;;
73575;SDS011;61859;49.204;8.140;2023-02-26T15:54:49;0.70;;;0.50;;
73575;SDS011;61859;49.204;8.140;2023-02-26T15:57:17;0.30;;;0.30;;
73575;SDS011;61859;49.204;8.140;2023-02-26T15:59:48;0.40;;;0.40;;
73575;SDS011;61859;49.204;8.140;2023-02-26T16:02:20;0.50;;;0.50;;
73575;SDS011;61859;49.204;8.140;2023-02-26T16:04:50;0.73;;;0.30;;
73575;SDS011;61859;49.204;8.140;2023-02-26T16:07:17;0.80;;;0.43;;
73575;SDS011;61859;49.204;8.140;2023-02-26T16:09:44;0.30;;;0.30;;
73575;SDS011;61859;49.204;8.140;2023-02-26T16:12:13;1.30;;;0.43;;
73575;SDS011;61859;49.204;8.140;2023-02-26T16:14:43;0.50;;;0.50;;
73575;SDS011;61859;49.204;8.140;2023-02-26T16:17:13;0.60;;;0.60;;
73575;SDS011;61859;49.204;8.140;2023-02-26T16:19:49;1.40;;;0.90;;
73575;SDS011;61859;49.204;8.140;2023-02-26T16:22:18;0.13;;;0.13;;
73575;SDS011;61859;49.204;8.140;2023-02-26T16:24:51;1.50;;;0.80;;
73575;SDS011;61859;49.204;8.140;2023-02-26T16:27:46;4.47;;;0.80;;
73575;SDS011;61859;49.204;8.140;2023-02-26T16:30:17;0.97;;;0.80;;
73575;SDS011;61859;49.204;8.140;2023-02-26T16:32:46;0.77;;;0.50;;
73575;SDS011;61859;49.204;8.140;2023-02-26T16:35:18;0.40;;;0.40;;
73575;SDS011;61859;49.204;8.140;2023-02-26T16:37:46;1.07;;;0.70;;
73575;SDS011;61859;49.204;8.140;2023-02-26T16:45:31;0.70;;;0.70;;
73575;SDS011;61859;49.204;8.140;2023-02-26T16:48:17;0.50;;;0.50;;
73575;SDS011;61859;49.204;8.140;2023-02-26T16:50:57;2.37;;;0.97;;
73575;SDS011;61859;49.204;8.140;2023-02-26T16:53:32;2.83;;;1.27;;
73575;SDS011;61859;49.204;8.140;2023-02-26T16:56:08;0.60;;;0.60;;
73575;SDS011;61859;49.204;8.140;2023-02-26T16:58:40;1.40;;;0.70;;
73575;SDS011;61859;49.204;8.140;2023-02-26T17:01:11;2.90;;;0.83;;
73575;SDS011;61859;49.204;8.140;2023-02-26T17:03:40;2.77;;;0.90;;
73575;SDS011;61859;49.204;8.140;2023-02-26T17:06:10;0.70;;;0.53;;
73575;SDS011;61859;49.204;8.140;2023-02-26T17:08:41;0.90;;;0.60;;
73575;SDS011;61859;49.204;8.140;2023-02-26T17:13:46;0.87;;;0.70;;
73575;SDS011;61859;49.204;8.140;2023-02-26T17:16:33;2.67;;;1.20;;
73575;SDS011;61859;49.204;8.140;2023-02-26T17:18:59;1.13;;;0.70;;
73575;SDS011;61859;49.204;8.140;2023-02-26T17:21:26;1.07;;;0.97;;
73575;SDS011;61859;49.204;8.140;2023-02-26T17:23:52;0.97;;;0.60;;
73575;SDS011;61859;49.204;8.140;2023-02-26T17:26:18;1.00;;;0.83;;
73575;SDS011;61859;49.204;8.140;2023-02-26T17:28:44;1.13;;;0.93;;
73575;SDS011;61859;49.204;8.140;2023-02-26T17:31:09;0.30;;;0.30;;
73575;SDS011;61859;49.204;8.140;2023-02-26T17:33:36;4.00;;;2.00;;
73575;SDS011;61859;49.204;8.140;2023-02-26T17:36:05;1.63;;;0.97;;
73575;SDS011;61859;49.204;8.140;2023-02-26T17:38:31;1.97;;;0.60;;
73575;SDS011;61859;49.204;8.140;2023-02-26T17:40:57;0.50;;;0.50;;
73575;SDS011;61859;49.204;8.140;2023-02-26T17:43:24;0.80;;;0.80;;
73575;SDS011;61859;49.204;8.140;2023-02-26T17:45:49;1.23;;;1.10;;
73575;SDS011;61859;49.204;8.140;2023-02-26T17:48:16;1.97;;;1.00;;
73575;SDS011;61859;49.204;8.140;2023-02-26T17:50:54;1.70;;;1.00;;
73575;SDS011;61859;49.204;8.140;2023-02-26T17:53:22;1.60;;;0.70;;
73575;SDS011;61859;49.204;8.140;2023-02-26T17:55:51;0.80;;;0.70;;